Time,TemperatureF,DewpointF,PressureIn,WindDirection,WindDirectionDegrees,WindSpeedMPH,WindSpeedGustMPH,Humidity,HourlyPrecipIn,Conditions,Clouds,dailyrainin,SoftwareType,DateUTC
2013-02-01 06:35:00,17.9,14.2,29.80,West,262,1.0,1.0,85,0.00,,,0.00,Wunderground v.1.15,2013-02-01 11:35:00,
2013-02-01 06:40:00,17.8,14.1,29.80,West,262,0.0,1.0,85,0.00,,,0.00,Wunderground v.1.15,2013-02-01 11:40:00,
2013-02-01 06:45:00,17.8,14.1,29.81,West,271,0.0,0.0,85,0.00,,,0.00,Wunderground v.1.15,2013-02-01 11:45:00,
2013-02-01 06:50:00,17.8,14.1,29.81,WSW,258,1.0,1.0,85,0.00,,,0.00,Wunderground v.1.15,2013-02-01 11:50:00,
2013-02-01 06:55:00,17.8,14.1,29.81,West,259,2.0,3.0,85,0.00,,,0.00,Wunderground v.1.15,2013-02-01 11:55:00,
2013-02-01 07:00:00,17.8,14.1,29.82,SW,225,1.0,1.0,85,0.00,,,0.00,Wunderground v.1.15,2013-02-01 12:00:00,
2013-02-01 07:15:00,17.9,13.9,29.83,WSW,252,1.0,1.0,84,0.00,,,0.00,Wunderground v.1.15,2013-02-01 12:15:00,
2013-02-01 07:25:00,18.0,14.0,29.84,West,261,0.0,1.0,84,0.00,,,0.00,Wunderground v.1.15,2013-02-01 12:25:00,
2013-02-01 07:30:00,18.0,14.0,29.84,West,270,1.0,2.0,84,0.00,,,0.00,Wunderground v.1.15,2013-02-01 12:30:00,
2013-02-01 07:35:00,18.1,14.1,29.84,West,269,2.0,8.0,84,0.00,,,0.00,Wunderground v.1.15,2013-02-01 12:35:00,
2013-02-01 07:40:00,18.2,14.2,29.85,West,265,1.0,8.0,84,0.00,,,0.00,Wunderground v.1.15,2013-02-01 12:40:00,
2013-02-01 07:45:00,18.2,14.2,29.85,West,263,2.0,2.0,84,0.00,,,0.00,Wunderground v.1.15,2013-02-01 12:45:00,
2013-02-01 07:50:00,18.2,14.2,29.86,West,273,3.0,3.0,84,0.00,,,0.00,Wunderground v.1.15,2013-02-01 12:50:00,
2013-02-01 07:55:00,18.2,14.2,29.86,West,265,3.0,3.0,84,0.00,,,0.00,Wunderground v.1.15,2013-02-01 12:55:00,
2013-02-01 08:05:00,18.1,14.4,29.87,WNW,288,2.0,11.0,85,0.00,,,0.00,Wunderground v.1.15,2013-02-01 13:05:00,
2013-02-01 08:10:00,18.1,14.4,29.87,NW,313,2.0,8.0,85,0.00,,,0.00,Wunderground v.1.15,2013-02-01 13:10:00,
2013-02-01 08:15:00,18.0,14.5,29.88,NW,304,2.0,8.0,86,0.00,,,0.00,Wunderground v.1.15,2013-02-01 13:15:00,
2013-02-01 08:20:00,18.0,14.5,29.88,WNW,284,2.0,8.0,86,0.00,,,0.00,Wunderground v.1.15,2013-02-01 13:20:00,
2013-02-01 08:25:00,17.7,14.2,29.88,WNW,283,2.0,8.0,86,0.00,,,0.00,Wunderground v.1.15,2013-02-01 13:25:00,
2013-02-01 08:30:00,17.6,14.1,29.89,WNW,289,2.0,2.0,86,0.00,,,0.00,Wunderground v.1.15,2013-02-01 13:30:00,
2013-02-01 08:35:00,17.6,14.1,29.89,WNW,286,1.0,8.0,86,0.00,,,0.00,Wunderground v.1.15,2013-02-01 13:35:00,
2013-02-01 08:45:00,17.6,14.4,29.90,WNW,288,0.0,8.0,87,0.00,,,0.00,Wunderground v.1.15,2013-02-01 13:45:00,
2013-02-01 08:50:00,17.5,14.3,29.90,NW,317,1.0,1.0,87,0.00,,,0.00,Wunderground v.1.15,2013-02-01 13:50:00,
2013-02-01 08:55:00,17.3,14.1,29.90,WNW,301,2.0,2.0,87,0.00,,,0.00,Wunderground v.1.15,2013-02-01 13:55:00,
2013-02-01 09:00:00,17.3,14.1,29.90,NW,307,2.0,2.0,87,0.00,,,0.00,Wunderground v.1.15,2013-02-01 14:00:00,
2013-02-01 09:05:00,17.2,14.0,29.91,NW,311,1.0,8.0,87,0.00,,,0.00,Wunderground v.1.15,2013-02-01 14:05:00,
2013-02-01 09:10:00,17.2,14.0,29.91,WNW,290,1.0,8.0,87,0.00,,,0.00,Wunderground v.1.15,2013-02-01 14:10:00,
2013-02-01 09:15:00,17.2,14.0,29.92,WNW,290,0.0,8.0,87,0.00,,,0.00,Wunderground v.1.15,2013-02-01 14:15:00,
2013-02-01 09:25:00,17.0,13.8,29.92,NW,316,2.0,8.0,87,0.00,,,0.00,Wunderground v.1.15,2013-02-01 14:25:00,
2013-02-01 09:30:00,16.8,13.6,29.92,NW,304,2.0,2.0,87,0.00,,,0.00,Wunderground v.1.15,2013-02-01 14:30:00,
2013-02-01 09:35:00,16.8,13.6,29.93,NW,314,1.0,8.0,87,0.00,,,0.00,Wunderground v.1.15,2013-02-01 14:35:00,
2013-02-01 09:40:00,16.8,13.6,29.93,NW,305,1.0,8.0,87,0.00,,,0.00,Wunderground v.1.15,2013-02-01 14:40:00,
2013-02-01 09:45:00,16.8,13.6,29.93,WNW,300,2.0,8.0,87,0.00,,,0.00,Wunderground v.1.15,2013-02-01 14:45:00,
2013-02-01 09:50:00,17.0,13.8,29.94,WNW,286,1.0,8.0,87,0.00,,,0.00,Wunderground v.1.15,2013-02-01 14:50:00,
2013-02-01 10:05:00,17.4,13.9,29.94,West,270,2.0,8.0,86,0.00,,,0.00,Wunderground v.1.15,2013-02-01 15:05:00,
2013-02-01 10:10:00,17.5,14.0,29.95,WNW,301,2.0,8.0,86,0.00,,,0.00,Wunderground v.1.15,2013-02-01 15:10:00,
2013-02-01 10:15:00,17.5,14.0,29.95,WNW,294,2.0,8.0,86,0.00,,,0.00,Wunderground v.1.15,2013-02-01 15:15:00,
2013-02-01 10:20:00,17.6,13.9,29.95,NW,309,2.0,8.0,85,0.00,,,0.00,Wunderground v.1.15,2013-02-01 15:20:00,
2013-02-01 10:30:00,18.2,14.2,29.96,NNE,33,3.0,8.0,84,0.00,,,0.00,Wunderground v.1.15,2013-02-01 15:30:00,
2013-02-01 10:40:00,18.4,13.8,29.97,NNW,345,2.0,8.0,82,0.00,,,0.00,Wunderground v.1.15,2013-02-01 15:40:00,
2013-02-01 10:45:00,18.4,13.5,29.96,NNW,339,2.0,8.0,81,0.00,,,0.00,Wunderground v.1.15,2013-02-01 15:45:00,
2013-02-01 10:50:00,18.4,13.5,29.97,NW,307,2.0,8.0,81,0.00,,,0.00,Wunderground v.1.15,2013-02-01 15:50:00,
2013-02-01 10:55:00,18.4,13.3,29.97,North,360,3.0,8.0,80,0.00,,,0.00,Wunderground v.1.15,2013-02-01 15:55:00,
2013-02-01 11:00:00,18.5,13.4,29.97,NW,311,3.0,8.0,80,0.00,,,0.00,Wunderground v.1.15,2013-02-01 16:00:00,
2013-02-01 11:05:00,18.5,13.4,29.97,NW,320,3.0,8.0,80,0.00,,,0.00,Wunderground v.1.15,2013-02-01 16:05:00,
2013-02-01 11:10:00,18.6,13.5,29.98,NW,314,2.0,8.0,80,0.00,,,0.00,Wunderground v.1.15,2013-02-01 16:10:00,
2013-02-01 11:20:00,18.9,13.7,29.98,NW,311,2.0,2.0,80,0.00,,,0.00,Wunderground v.1.15,2013-02-01 16:20:00,
2013-02-01 11:25:00,19.0,13.8,29.98,WNW,301,2.0,8.0,80,0.00,,,0.00,Wunderground v.1.15,2013-02-01 16:25:00,
2013-02-01 11:30:00,19.1,13.9,29.98,WNW,288,2.0,2.0,80,0.00,,,0.00,Wunderground v.1.15,2013-02-01 16:30:00,
2013-02-01 11:35:00,19.7,14.8,29.98,West,263,2.0,8.0,81,0.00,,,0.00,Wunderground v.1.15,2013-02-01 16:35:00,
2013-02-01 11:40:00,19.7,14.5,29.98,West,274,1.0,1.0,80,0.00,,,0.00,Wunderground v.1.15,2013-02-01 16:40:00,
2013-02-01 11:45:00,19.8,14.9,29.98,West,277,2.0,2.0,81,0.00,,,0.00,Wunderground v.1.15,2013-02-01 16:45:00,
2013-02-01 11:50:00,19.7,14.5,29.98,West,263,2.0,8.0,80,0.00,,,0.00,Wunderground v.1.15,2013-02-01 16:50:00,
2013-02-01 12:00:00,19.7,14.2,29.98,WNW,295,2.0,8.0,79,0.00,,,0.00,Wunderground v.1.15,2013-02-01 17:00:00,
2013-02-01 12:05:00,19.7,14.0,29.98,West,269,2.0,8.0,78,0.00,,,0.00,Wunderground v.1.15,2013-02-01 17:05:00,
2013-02-01 12:10:00,19.3,13.3,29.98,West,273,3.0,8.0,77,0.00,,,0.00,Wunderground v.1.15,2013-02-01 17:10:00,
2013-02-01 12:15:00,19.3,13.3,29.98,West,268,3.0,8.0,77,0.00,,,0.00,Wunderground v.1.15,2013-02-01 17:15:00,
2013-02-01 12:20:00,19.4,12.8,29.98,NW,311,4.0,4.0,75,0.00,,,0.00,Wunderground v.1.15,2013-02-01 17:20:00,
2013-02-01 12:25:00,19.7,12.4,29.98,West,274,4.0,5.0,73,0.00,,,0.00,Wunderground v.1.15,2013-02-01 17:25:00,
2013-02-01 12:30:00,19.7,12.4,29.99,West,281,4.0,8.0,73,0.00,,,0.00,Wunderground v.1.15,2013-02-01 17:30:00,
2013-02-01 12:40:00,20.6,13.3,29.99,North,360,3.0,8.0,73,0.00,,,0.00,Wunderground v.1.15,2013-02-01 17:40:00,
2013-02-01 12:45:00,20.6,13.0,29.98,NW,310,3.0,8.0,72,0.00,,,0.00,Wunderground v.1.15,2013-02-01 17:45:00,
2013-02-01 12:50:00,20.5,12.9,29.99,West,275,3.0,3.0,72,0.00,,,0.00,Wunderground v.1.15,2013-02-01 17:50:00,
2013-02-01 12:55:00,20.2,12.3,29.99,NW,323,4.0,5.0,71,0.00,,,0.00,Wunderground v.1.15,2013-02-01 17:55:00,
2013-02-01 13:00:00,19.9,12.3,29.99,WNW,294,4.0,8.0,72,0.00,,,0.00,Wunderground v.1.15,2013-02-01 18:00:00,
2013-02-01 13:05:00,19.9,12.6,29.99,WNW,303,4.0,8.0,73,0.00,,,0.00,Wunderground v.1.15,2013-02-01 18:05:00,
2013-02-01 13:15:00,20.5,12.3,30.00,WNW,290,3.0,8.0,70,0.00,,,0.00,Wunderground v.1.15,2013-02-01 18:15:00,
2013-02-01 13:25:00,20.4,10.8,30.00,WNW,289,4.0,5.0,66,0.00,,,0.00,Wunderground v.1.15,2013-02-01 18:25:00,
2013-02-01 13:30:00,20.0,10.8,30.00,West,269,5.0,8.0,67,0.00,,,0.00,Wunderground v.1.15,2013-02-01 18:30:00,
2013-02-01 13:35:00,19.8,10.6,30.00,NW,306,5.0,12.0,67,0.00,,,0.00,Wunderground v.1.15,2013-02-01 18:35:00,
2013-02-01 13:40:00,19.9,10.7,30.00,NW,311,5.0,5.0,67,0.00,,,0.00,Wunderground v.1.15,2013-02-01 18:40:00,
2013-02-01 13:45:00,20.2,10.6,30.00,WNW,284,4.0,8.0,66,0.00,,,0.00,Wunderground v.1.15,2013-02-01 18:45:00,
2013-02-01 13:55:00,20.0,11.8,30.01,WNW,290,4.0,8.0,70,0.00,,,0.00,Wunderground v.1.15,2013-02-01 18:55:00,
2013-02-01 14:05:00,20.1,12.2,30.01,West,259,2.0,8.0,71,0.00,,,0.00,Wunderground v.1.15,2013-02-01 19:05:00,
2013-02-01 14:10:00,20.1,11.9,30.01,NW,309,3.0,8.0,70,0.00,,,0.00,Wunderground v.1.15,2013-02-01 19:10:00,
2013-02-01 14:15:00,20.2,12.0,30.02,WNW,292,3.0,8.0,70,0.00,,,0.00,Wunderground v.1.15,2013-02-01 19:15:00,
2013-02-01 14:20:00,19.8,11.6,30.02,NW,304,4.0,4.0,70,0.00,,,0.00,Wunderground v.1.15,2013-02-01 19:20:00,
2013-02-01 14:25:00,19.7,11.8,30.02,West,275,4.0,8.0,71,0.00,,,0.00,Wunderground v.1.15,2013-02-01 19:25:00,
2013-02-01 14:30:00,19.7,11.8,30.02,NW,304,3.0,3.0,71,0.00,,,0.00,Wunderground v.1.15,2013-02-01 19:30:00,
2013-02-01 14:40:00,19.4,11.5,30.02,WNW,300,3.0,8.0,71,0.00,,,0.00,Wunderground v.1.15,2013-02-01 19:40:00,
2013-02-01 14:45:00,19.6,11.7,30.02,WNW,287,3.0,8.0,71,0.00,,,0.00,Wunderground v.1.15,2013-02-01 19:45:00,
2013-02-01 14:50:00,19.3,10.8,30.03,West,262,4.0,8.0,69,0.00,,,0.00,Wunderground v.1.15,2013-02-01 19:50:00,
2013-02-01 14:55:00,18.9,10.4,30.03,NW,319,4.0,8.0,69,0.00,,,0.00,Wunderground v.1.15,2013-02-01 19:55:00,
2013-02-01 15:00:00,18.8,10.3,30.03,WSW,253,4.0,4.0,69,0.00,,,0.00,Wunderground v.1.15,2013-02-01 20:00:00,
2013-02-01 15:05:00,18.8,10.3,30.03,WNW,293,3.0,8.0,69,0.00,,,0.00,Wunderground v.1.15,2013-02-01 20:05:00,
2013-02-01 15:10:00,18.8,10.3,30.03,West,271,4.0,8.0,69,0.00,,,0.00,Wunderground v.1.15,2013-02-01 20:10:00,
2013-02-01 15:20:00,19.0,10.5,30.04,WNW,297,4.0,4.0,69,0.00,,,0.00,Wunderground v.1.15,2013-02-01 20:20:00,
2013-02-01 15:25:00,19.1,10.3,30.04,West,281,3.0,8.0,68,0.00,,,0.00,Wunderground v.1.15,2013-02-01 20:25:00,
2013-02-01 15:30:00,19.0,9.8,30.04,WNW,286,3.0,8.0,67,0.00,,,0.00,Wunderground v.1.15,2013-02-01 20:30:00,
2013-02-01 15:35:00,18.9,9.7,30.04,WNW,298,4.0,8.0,67,0.00,,,0.00,Wunderground v.1.15,2013-02-01 20:35:00,
2013-02-01 15:40:00,19.1,10.3,30.05,West,271,3.0,8.0,68,0.00,,,0.00,Wunderground v.1.15,2013-02-01 20:40:00,
2013-02-01 15:45:00,19.0,9.8,30.05,WNW,283,3.0,8.0,67,0.00,,,0.00,Wunderground v.1.15,2013-02-01 20:45:00,
2013-02-01 15:50:00,18.9,9.7,30.05,West,281,3.0,8.0,67,0.00,,,0.00,Wunderground v.1.15,2013-02-01 20:50:00,
2013-02-01 16:00:00,18.8,10.0,30.05,NW,310,3.0,3.0,68,0.00,,,0.00,Wunderground v.1.15,2013-02-01 21:00:00,
2013-02-01 16:05:00,18.8,10.0,30.05,WNW,294,3.0,8.0,68,0.00,,,0.00,Wunderground v.1.15,2013-02-01 21:05:00,
2013-02-01 16:10:00,18.7,9.9,30.06,West,279,2.0,8.0,68,0.00,,,0.00,Wunderground v.1.15,2013-02-01 21:10:00,
2013-02-01 16:15:00,18.6,10.1,30.06,West,277,2.0,8.0,69,0.00,,,0.00,Wunderground v.1.15,2013-02-01 21:15:00,
2013-02-01 16:20:00,18.6,9.8,30.06,West,275,1.0,1.0,68,0.00,,,0.00,Wunderground v.1.15,2013-02-01 21:20:00,
2013-02-01 16:25:00,18.7,9.6,30.06,WNW,300,2.0,2.0,67,0.00,,,0.00,Wunderground v.1.15,2013-02-01 21:25:00,
2013-02-01 16:30:00,18.9,9.4,30.07,NW,305,3.0,3.0,66,0.00,,,0.00,Wunderground v.1.15,2013-02-01 21:30:00,
2013-02-01 16:40:00,19.0,9.5,30.07,NW,317,2.0,2.0,66,0.00,,,0.00,Wunderground v.1.15,2013-02-01 21:40:00,
2013-02-01 16:45:00,19.1,9.6,30.07,NW,308,3.0,3.0,66,0.00,,,0.00,Wunderground v.1.15,2013-02-01 21:45:00,
2013-02-01 16:50:00,19.1,9.6,30.07,WNW,293,2.0,8.0,66,0.00,,,0.00,Wunderground v.1.15,2013-02-01 21:50:00,
2013-02-01 16:55:00,19.1,9.6,30.07,West,269,1.0,8.0,66,0.00,,,0.00,Wunderground v.1.15,2013-02-01 21:55:00,
2013-02-01 17:00:00,19.1,9.6,30.08,West,277,2.0,2.0,66,0.00,,,0.00,Wunderground v.1.15,2013-02-01 22:00:00,
2013-02-01 17:05:00,19.2,9.7,30.07,WNW,284,2.0,8.0,66,0.00,,,0.00,Wunderground v.1.15,2013-02-01 22:05:00,
2013-02-01 17:10:00,19.1,9.6,30.08,WNW,286,2.0,8.0,66,0.00,,,0.00,Wunderground v.1.15,2013-02-01 22:10:00,
2013-02-01 17:20:00,19.1,9.9,30.09,West,281,1.0,1.0,67,0.00,,,0.00,Wunderground v.1.15,2013-02-01 22:20:00,
2013-02-01 17:25:00,19.0,9.5,30.08,NW,304,1.0,2.0,66,0.00,,,0.00,Wunderground v.1.15,2013-02-01 22:25:00,
2013-02-01 17:30:00,19.0,9.5,30.09,WNW,283,1.0,8.0,66,0.00,,,0.00,Wunderground v.1.15,2013-02-01 22:30:00,
2013-02-01 17:35:00,18.9,9.1,30.09,WNW,288,2.0,8.0,65,0.00,,,0.00,Wunderground v.1.15,2013-02-01 22:35:00,
2013-02-01 17:40:00,19.0,9.2,30.10,NW,306,2.0,2.0,65,0.00,,,0.00,Wunderground v.1.15,2013-02-01 22:40:00,
2013-02-01 17:45:00,19.0,8.8,30.10,WNW,284,2.0,8.0,64,0.00,,,0.00,Wunderground v.1.15,2013-02-01 22:45:00,
2013-02-01 17:55:00,18.9,9.4,30.10,West,273,1.0,8.0,66,0.00,,,0.00,Wunderground v.1.15,2013-02-01 22:55:00,
2013-02-01 18:05:00,18.8,9.6,30.11,West,275,1.0,8.0,67,0.00,,,0.00,Wunderground v.1.15,2013-02-01 23:05:00,
2013-02-01 18:10:00,18.7,9.6,30.11,West,275,0.0,8.0,67,0.00,,,0.00,Wunderground v.1.15,2013-02-01 23:10:00,
2013-02-01 18:15:00,18.6,10.1,30.11,West,275,0.0,8.0,69,0.00,,,0.00,Wunderground v.1.15,2013-02-01 23:15:00,
2013-02-01 18:20:00,18.6,10.4,30.11,West,263,1.0,8.0,70,0.00,,,0.00,Wunderground v.1.15,2013-02-01 23:20:00,
2013-02-01 18:25:00,18.5,10.7,30.12,WNW,293,2.0,8.0,71,0.00,,,0.00,Wunderground v.1.15,2013-02-01 23:25:00,
2013-02-01 18:30:00,18.2,10.7,30.12,WNW,288,2.0,8.0,72,0.00,,,0.00,Wunderground v.1.15,2013-02-01 23:30:00,
2013-02-01 18:40:00,17.9,11.0,30.13,WSW,246,2.0,2.0,74,0.00,,,0.00,Wunderground v.1.15,2013-02-01 23:40:00,
2013-02-01 18:45:00,17.9,11.3,30.13,West,259,1.0,8.0,75,0.00,,,0.00,Wunderground v.1.15,2013-02-01 23:45:00,
2013-02-01 18:50:00,17.9,11.6,30.13,West,262,1.0,1.0,76,0.00,,,0.00,Wunderground v.1.15,2013-02-01 23:50:00,
2013-02-01 18:55:00,17.9,11.6,30.13,WNW,292,1.0,8.0,76,0.00,,,0.00,Wunderground v.1.15,2013-02-01 23:55:00,
2013-02-01 19:00:00,17.9,11.9,30.13,WNW,286,1.0,1.0,77,0.00,,,0.00,Wunderground v.1.15,2013-02-02 00:00:00,
2013-02-01 19:05:00,17.9,12.2,30.14,WSW,251,1.0,8.0,78,0.00,,,0.00,Wunderground v.1.15,2013-02-02 00:05:00,
2013-02-01 19:20:00,17.6,12.5,30.14,West,259,1.0,1.0,80,0.00,,,0.00,Wunderground v.1.15,2013-02-02 00:20:00,
2013-02-01 19:25:00,17.5,12.4,30.14,West,259,0.0,8.0,80,0.00,,,0.00,Wunderground v.1.15,2013-02-02 00:25:00,
2013-02-01 19:30:00,17.5,12.7,30.14,West,259,0.0,8.0,81,0.00,,,0.00,Wunderground v.1.15,2013-02-02 00:30:00,
2013-02-01 19:35:00,17.5,12.7,30.15,West,267,1.0,8.0,81,0.00,,,0.00,Wunderground v.1.15,2013-02-02 00:35:00,
2013-02-01 19:40:00,17.6,13.0,30.15,WNW,295,2.0,2.0,82,0.00,,,0.00,Wunderground v.1.15,2013-02-02 00:40:00,
2013-02-01 19:50:00,17.6,13.0,30.15,West,281,1.0,8.0,82,0.00,,,0.00,Wunderground v.1.15,2013-02-02 00:50:00,
2013-02-01 19:55:00,17.6,13.0,30.15,WNW,283,1.0,8.0,82,0.00,,,0.00,Wunderground v.1.15,2013-02-02 00:55:00,
2013-02-01 20:00:00,17.6,12.8,30.15,West,266,2.0,8.0,81,0.00,,,0.00,Wunderground v.1.15,2013-02-02 01:00:00,
2013-02-01 20:05:00,17.6,12.8,30.15,WNW,289,2.0,8.0,81,0.00,,,0.00,Wunderground v.1.15,2013-02-02 01:05:00,
2013-02-01 20:10:00,17.6,12.8,30.15,West,268,1.0,8.0,81,0.00,,,0.00,Wunderground v.1.15,2013-02-02 01:10:00,
2013-02-01 20:15:00,17.6,12.8,30.15,West,273,2.0,8.0,81,0.00,,,0.00,Wunderground v.1.15,2013-02-02 01:15:00,
2013-02-01 20:20:00,17.6,12.5,30.16,West,266,2.0,2.0,80,0.00,,,0.00,Wunderground v.1.15,2013-02-02 01:20:00,
2013-02-01 20:25:00,17.6,12.5,30.15,WNW,286,2.0,3.0,80,0.00,,,0.00,Wunderground v.1.15,2013-02-02 01:25:00,
2013-02-01 20:35:00,17.7,12.3,30.16,West,260,3.0,12.0,79,0.00,,,0.00,Wunderground v.1.15,2013-02-02 01:35:00,
2013-02-01 20:40:00,17.8,12.1,30.15,West,267,3.0,3.0,78,0.00,,,0.00,Wunderground v.1.15,2013-02-02 01:40:00,
2013-02-01 20:45:00,17.7,12.0,30.15,WSW,257,2.0,4.0,78,0.00,,,0.00,Wunderground v.1.15,2013-02-02 01:45:00,
2013-02-01 20:50:00,17.7,12.0,30.16,West,275,2.0,8.0,78,0.00,,,0.00,Wunderground v.1.15,2013-02-02 01:50:00,
2013-02-01 20:55:00,17.7,12.0,30.16,WNW,298,2.0,8.0,78,0.00,,,0.00,Wunderground v.1.15,2013-02-02 01:55:00,
2013-02-01 21:00:00,17.6,11.9,30.16,West,267,2.0,8.0,78,0.00,,,0.00,Wunderground v.1.15,2013-02-02 02:00:00,
2013-02-01 21:05:00,17.6,11.6,30.16,WSW,257,3.0,8.0,77,0.00,,,0.00,Wunderground v.1.15,2013-02-02 02:05:00,
2013-02-01 21:15:00,17.7,11.4,30.16,West,264,2.0,8.0,76,0.00,,,0.00,Wunderground v.1.15,2013-02-02 02:15:00,
2013-02-01 21:20:00,17.7,11.4,30.16,West,281,1.0,1.0,76,0.00,,,0.00,Wunderground v.1.15,2013-02-02 02:20:00,
2013-02-01 21:25:00,17.8,11.2,30.16,West,281,1.0,2.0,75,0.00,,,0.00,Wunderground v.1.15,2013-02-02 02:25:00,
2013-02-01 21:30:00,17.9,11.0,30.16,West,277,2.0,2.0,74,0.00,,,0.00,Wunderground v.1.15,2013-02-02 02:30:00,
2013-02-01 21:35:00,18.0,10.8,30.16,WSW,257,2.0,8.0,73,0.00,,,0.00,Wunderground v.1.15,2013-02-02 02:35:00,
2013-02-01 21:40:00,18.0,10.5,30.16,West,262,2.0,2.0,72,0.00,,,0.00,Wunderground v.1.15,2013-02-02 02:40:00,
2013-02-01 21:45:00,17.9,10.4,30.17,West,275,1.0,8.0,72,0.00,,,0.00,Wunderground v.1.15,2013-02-02 02:45:00,
2013-02-01 21:55:00,17.8,10.0,30.17,West,269,2.0,8.0,71,0.00,,,0.00,Wunderground v.1.15,2013-02-02 02:55:00,
2013-02-01 22:00:00,17.7,9.6,30.17,West,260,2.0,2.0,70,0.00,,,0.00,Wunderground v.1.15,2013-02-02 03:00:00,
2013-02-01 22:05:00,17.7,9.6,30.17,SW,234,3.0,3.0,70,0.00,,,0.00,Wunderground v.1.15,2013-02-02 03:05:00,
2013-02-01 22:10:00,17.5,9.4,30.17,West,275,3.0,3.0,70,0.00,,,0.00,Wunderground v.1.15,2013-02-02 03:10:00,
2013-02-01 22:15:00,17.4,9.3,30.17,West,269,2.0,8.0,70,0.00,,,0.00,Wunderground v.1.15,2013-02-02 03:15:00,
2013-02-01 22:25:00,17.4,9.3,30.18,WNW,296,2.0,5.0,70,0.00,,,0.00,Wunderground v.1.15,2013-02-02 03:25:00,
2013-02-01 22:30:00,17.5,9.4,30.18,WSW,254,2.0,2.0,70,0.00,,,0.00,Wunderground v.1.15,2013-02-02 03:30:00,
2013-02-01 22:35:00,17.6,9.2,30.18,West,277,3.0,3.0,69,0.00,,,0.00,Wunderground v.1.15,2013-02-02 03:35:00,
2013-02-01 22:40:00,17.6,8.8,30.18,West,267,3.0,3.0,68,0.00,,,0.00,Wunderground v.1.15,2013-02-02 03:40:00,
2013-02-01 22:45:00,17.7,8.9,30.18,West,281,3.0,4.0,68,0.00,,,0.00,Wunderground v.1.15,2013-02-02 03:45:00,
2013-02-01 22:50:00,17.7,8.6,30.17,WNW,284,3.0,8.0,67,0.00,,,0.00,Wunderground v.1.15,2013-02-02 03:50:00,
2013-02-01 23:00:00,17.4,8.3,30.18,West,270,2.0,2.0,67,0.00,,,0.00,Wunderground v.1.15,2013-02-02 04:00:00,
2013-02-01 23:05:00,17.2,8.1,30.18,West,269,2.0,8.0,67,0.00,,,0.00,Wunderground v.1.15,2013-02-02 04:05:00,
2013-02-01 23:10:00,17.1,8.0,30.18,West,263,2.0,2.0,67,0.00,,,0.00,Wunderground v.1.15,2013-02-02 04:10:00,
2013-02-01 23:15:00,16.9,7.8,30.18,West,267,1.0,8.0,67,0.00,,,0.00,Wunderground v.1.15,2013-02-02 04:15:00,
2013-02-01 23:20:00,16.7,7.6,30.17,WNW,285,1.0,8.0,67,0.00,,,0.00,Wunderground v.1.15,2013-02-02 04:20:00,
2013-02-01 23:25:00,16.6,7.5,30.18,WNW,284,1.0,8.0,67,0.00,,,0.00,Wunderground v.1.15,2013-02-02 04:25:00,
2013-02-01 23:30:00,16.6,7.5,30.18,West,279,1.0,1.0,67,0.00,,,0.00,Wunderground v.1.15,2013-02-02 04:30:00,
2013-02-01 23:35:00,16.6,7.5,30.18,WSW,252,0.0,8.0,67,0.00,,,0.00,Wunderground v.1.15,2013-02-02 04:35:00,
2013-02-01 23:45:00,16.4,7.3,30.18,WSW,248,0.0,8.0,67,0.00,,,0.00,Wunderground v.1.15,2013-02-02 04:45:00,
2013-02-01 23:50:00,16.3,7.3,30.18,WSW,248,0.0,8.0,67,0.00,,,0.00,Wunderground v.1.15,2013-02-02 04:50:00,
2013-02-01 23:55:00,16.4,7.3,30.18,WSW,248,0.0,8.0,67,0.00,,,0.00,Wunderground v.1.15,2013-02-02 04:55:00,